Time;durP1;ratioP1;P1;durP2;ratioP2;P2;SDS_P1;SDS_P2;PMS_P1;PMS_P2;Temp;Humidity;BMP_temperature;BMP_pressure;BME280_temperature;BME280_humidity;BME280_pressure;Samples;Min_cycle;Max_cycle;Signal;HPM_P1;HPM_P2
2021/06/23 00:02:08;;;;;;;9.73;4.28;;;22.30;58.60;;;;;;6068349;23;20082;-74
2021/06/23 00:04:35;;;;;;;13.95;4.45;;;22.30;58.10;;;;;;6066689;23;20014;-74
2021/06/23 00:07:01;;;;;;;13.35;4.60;;;22.30;58.60;;;;;;6066849;23;20015;-73
2021/06/23 00:09:27;;;;;;;14.15;4.90;;;22.30;58.70;;;;;;6068106;23;20018;-74
2021/06/23 00:11:55;;;;;;;15.00;5.07;;;22.30;58.90;;;;;;6042537;23;20093;-74
2021/06/23 00:14:23;;;;;;;17.15;4.47;;;22.30;59.00;;;;;;6066677;23;20433;-75
2021/06/23 00:16:49;;;;;;;15.48;4.32;;;22.30;59.10;;;;;;6066679;23;20497;-74
2021/06/23 00:19:16;;;;;;;13.52;4.32;;;22.30;59.00;;;;;;6066743;23;20023;-74
2021/06/23 00:21:42;;;;;;;12.02;4.60;;;22.20;58.50;;;;;;6066519;23;20019;-75
2021/06/23 00:24:09;;;;;;;13.13;5.68;;;22.20;59.10;;;;;;6042776;23;20018;-74
2021/06/23 00:26:36;;;;;;;14.70;4.88;;;22.20;59.20;;;;;;6068001;23;20026;-73
2021/06/23 00:29:05;;;;;;;12.13;4.95;;;22.10;58.80;;;;;;6042564;23;20018;-74
2021/06/23 00:31:33;;;;;;;17.50;4.85;;;22.10;59.30;;;;;;6066307;23;20026;-75
2021/06/23 00:34:03;;;;;;;11.30;4.72;;;22.10;59.30;;;;;;6042481;23;20011;-74
2021/06/23 00:36:29;;;;;;;11.40;4.53;;;22.00;59.30;;;;;;6042634;23;20062;-74
2021/06/23 00:38:55;;;;;;;15.63;4.20;;;21.90;59.30;;;;;;6066240;23;20034;-75
2021/06/23 00:41:22;;;;;;;13.25;4.97;;;21.90;59.50;;;;;;6067968;23;20011;-74
2021/06/23 00:43:48;;;;;;;16.15;4.28;;;21.70;59.10;;;;;;6066589;23;20063;-74
2021/06/23 00:46:16;;;;;;;12.60;3.97;;;21.70;59.40;;;;;;6042785;23;20015;-73
2021/06/23 00:48:42;;;;;;;10.85;4.25;;;21.60;59.70;;;;;;6066528;23;20021;-74
2021/06/23 00:51:09;;;;;;;16.27;4.10;;;21.60;59.30;;;;;;6066615;23;20040;-74
2021/06/23 00:53:36;;;;;;;11.18;4.43;;;21.60;60.00;;;;;;6066375;23;20446;-74
2021/06/23 00:56:02;;;;;;;15.98;4.47;;;21.60;59.60;;;;;;6042690;23;20049;-74
2021/06/23 00:58:29;;;;;;;11.00;4.18;;;21.50;59.60;;;;;;6066533;23;20011;-74
2021/06/23 01:00:57;;;;;;;14.05;5.88;;;21.50;59.70;;;;;;6066467;23;20019;-74
2021/06/23 01:03:25;;;;;;;9.80;4.00;;;21.50;60.20;;;;;;6042592;23;20344;-73
2021/06/23 01:05:51;;;;;;;13.20;3.92;;;21.50;59.80;;;;;;6066347;23;20024;-74
2021/06/23 01:08:19;;;;;;;14.18;4.38;;;21.40;59.70;;;;;;6066511;23;20015;-75
2021/06/23 01:10:46;;;;;;;10.82;4.70;;;21.40;60.40;;;;;;6066032;23;20038;-74
2021/06/23 01:13:49;;;;;;;13.05;4.75;;;21.40;60.00;;;;;;6067772;23;20039;-73
2021/06/23 01:16:17;;;;;;;15.90;4.80;;;21.40;60.20;;;;;;6068170;23;20018;-74
2021/06/23 01:18:45;;;;;;;13.20;4.68;;;21.40;60.70;;;;;;6066198;23;20010;-74
2021/06/23 01:21:12;;;;;;;14.93;4.82;;;21.30;60.80;;;;;;6042421;23;20034;-74
2021/06/23 01:23:38;;;;;;;15.27;5.25;;;21.30;61.00;;;;;;6043073;23;20011;-73
2021/06/23 01:26:05;;;;;;;15.98;4.68;;;21.30;61.20;;;;;;6068440;23;20023;-73
2021/06/23 01:28:31;;;;;;;14.52;5.03;;;21.30;61.40;;;;;;6044304;23;20093;-73
2021/06/23 01:30:58;;;;;;;12.35;4.97;;;21.30;61.40;;;;;;6067949;23;20015;-74
2021/06/23 01:33:43;;;;;;;16.42;6.05;;;21.30;61.40;;;;;;6068355;23;20015;-75
2021/06/23 01:36:10;;;;;;;13.40;4.30;;;21.30;61.30;;;;;;6068408;23;20087;-74
2021/06/23 01:38:36;;;;;;;11.45;4.47;;;21.30;61.60;;;;;;6068232;23;20011;-73
2021/06/23 01:41:02;;;;;;;11.15;4.70;;;21.30;61.00;;;;;;6044201;23;20023;-74
2021/06/23 01:43:29;;;;;;;13.13;4.40;;;21.20;60.90;;;;;;6069746;23;20409;-74
2021/06/23 01:45:56;;;;;;;12.95;4.60;;;21.20;60.90;;;;;;6044260;23;20098;-73
2021/06/23 01:48:26;;;;;;;11.88;4.78;;;21.20;61.00;;;;;;6068130;23;20014;-73
2021/06/23 01:51:11;;;;;;;14.32;5.20;;;21.20;61.80;;;;;;6068078;23;20019;-74
2021/06/23 01:53:39;;;;;;;11.75;4.50;;;21.20;61.90;;;;;;6069425;23;20014;-73
2021/06/23 01:56:07;;;;;;;13.65;4.47;;;21.10;62.10;;;;;;6068289;23;20014;-74
2021/06/23 01:58:38;;;;;;;13.45;4.63;;;21.10;62.20;;;;;;6068050;23;20207;-73
2021/06/23 02:01:48;;;;;;;17.88;6.00;;;21.10;62.30;;;;;;6068084;23;20018;-73
2021/06/23 02:04:51;;;;;;;12.63;5.03;;;21.10;62.00;;;;;;6069852;23;20018;-73
2021/06/23 02:08:13;;;;;;;14.27;5.38;;;21.10;61.90;;;;;;6069397;23;20011;-75
2021/06/23 02:10:58;;;;;;;11.77;4.75;;;21.10;62.00;;;;;;6069510;23;20337;-74
2021/06/23 02:14:27;;;;;;;18.15;5.63;;;21.00;62.40;;;;;;6069394;23;20085;-73
2021/06/23 02:16:55;;;;;;;12.80;4.60;;;21.10;62.10;;;;;;6067867;23;20054;-74
2021/06/23 02:19:22;;;;;;;12.38;4.25;;;21.00;62.20;;;;;;6067881;23;20433;-74
2021/06/23 02:21:49;;;;;;;24.13;4.97;;;21.00;62.50;;;;;;6067851;23;20011;-74
2021/06/23 02:24:16;;;;;;;15.18;4.18;;;21.00;62.60;;;;;;6069268;23;20033;-73
2021/06/23 02:26:43;;;;;;;15.50;4.63;;;21.00;62.70;;;;;;6043760;23;20079;-74
2021/06/23 02:29:09;;;;;;;14.73;4.30;;;21.00;62.20;;;;;;6043551;23;20337;-74
2021/06/23 02:31:38;;;;;;;10.55;4.10;;;21.00;63.00;;;;;;6067214;23;20019;-74
2021/06/23 02:34:10;;;;;;;15.20;4.93;;;21.00;63.00;;;;;;6067472;23;20007;-74
2021/06/23 02:36:37;;;;;;;15.15;4.28;;;21.00;63.10;;;;;;6067730;23;20011;-73
2021/06/23 02:39:06;;;;;;;14.82;4.57;;;21.00;63.10;;;;;;6067622;23;20007;-74
2021/06/23 02:41:33;;;;;;;15.35;4.55;;;21.00;63.10;;;;;;6068972;23;20011;-74
2021/06/23 02:44:00;;;;;;;15.13;4.75;;;21.00;63.20;;;;;;6067935;23;20369;-75
2021/06/23 02:46:27;;;;;;;12.35;4.18;;;21.00;63.20;;;;;;6067613;23;20039;-73
2021/06/23 02:48:54;;;;;;;14.07;4.95;;;21.00;63.30;;;;;;6067593;23;20038;-74
2021/06/23 02:51:41;;;;;;;13.10;4.45;;;20.90;63.30;;;;;;6067497;23;20139;-75
2021/06/23 02:54:08;;;;;;;13.75;4.35;;;20.90;63.30;;;;;;6067601;23;20018;-74
2021/06/23 02:56:35;;;;;;;14.80;4.15;;;20.80;63.20;;;;;;6067443;23;20011;-74
2021/06/23 02:59:04;;;;;;;17.83;4.63;;;20.80;63.20;;;;;;6067442;23;20007;-73
2021/06/23 03:01:30;;;;;;;16.83;3.83;;;20.80;63.30;;;;;;6043378;23;20022;-73
2021/06/23 03:03:57;;;;;;;14.63;4.80;;;20.90;63.60;;;;;;6067178;23;20062;-74
2021/06/23 03:06:24;;;;;;;16.42;4.15;;;20.80;63.30;;;;;;6043358;23;20070;-75
2021/06/23 03:08:50;;;;;;;18.92;6.07;;;20.80;62.90;;;;;;6043465;23;20006;-73
2021/06/23 03:11:17;;;;;;;11.20;3.80;;;20.80;63.60;;;;;;6043507;23;20053;-75
2021/06/23 03:13:43;;;;;;;15.13;3.85;;;20.80;63.60;;;;;;6068830;23;20011;-73
2021/06/23 03:16:10;;;;;;;13.63;4.35;;;20.80;63.60;;;;;;6043620;23;20437;-73
2021/06/23 03:18:36;;;;;;;12.27;4.10;;;20.80;63.60;;;;;;6043322;23;20019;-73
2021/06/23 03:21:06;;;;;;;13.15;4.60;;;20.80;63.60;;;;;;6067458;23;20007;-74
2021/06/23 03:23:33;;;;;;;13.43;4.45;;;20.80;63.40;;;;;;6043283;23;20019;-75
2021/06/23 03:26:00;;;;;;;17.75;4.85;;;20.70;63.40;;;;;;6043487;23;20102;-75
2021/06/23 03:28:26;;;;;;;13.05;3.67;;;20.70;63.50;;;;;;6043592;23;20015;-75
2021/06/23 03:30:53;;;;;;;11.23;4.00;;;20.70;63.60;;;;;;6066482;23;20036;-73
2021/06/23 03:33:19;;;;;;;14.98;4.07;;;20.70;63.50;;;;;;6067261;23;20468;-73
2021/06/23 03:35:46;;;;;;;11.80;3.72;;;20.60;63.30;;;;;;6068907;23;20085;-73
2021/06/23 03:38:12;;;;;;;11.10;3.72;;;20.70;63.30;;;;;;6043346;23;20465;-73
2021/06/23 03:40:38;;;;;;;11.93;4.20;;;20.60;63.00;;;;;;6067102;23;20042;-73
2021/06/23 03:43:04;;;;;;;9.32;3.45;;;20.60;62.50;;;;;;6068493;23;20019;-75
2021/06/23 03:45:31;;;;;;;14.30;4.03;;;20.60;63.30;;;;;;6066944;23;20022;-73
2021/06/23 03:47:57;;;;;;;20.42;4.35;;;20.60;62.60;;;;;;6068554;23;20345;-73
2021/06/23 03:50:23;;;;;;;12.52;3.75;;;20.60;63.20;;;;;;6043009;23;20034;-74
2021/06/23 03:52:50;;;;;;;17.60;5.35;;;20.60;63.30;;;;;;6042950;23;20338;-75
2021/06/23 03:58:00;;;;;;;13.52;3.92;;;20.70;63.50;;;;;;6068903;23;20029;-75
2021/06/23 04:00:29;;;;;;;17.70;5.72;;;20.70;63.30;;;;;;6042788;23;20034;-74
2021/06/23 04:02:56;;;;;;;15.68;3.72;;;20.70;63.20;;;;;;6066799;23;20019;-73
2021/06/23 04:05:23;;;;;;;18.45;4.32;;;20.70;63.30;;;;;;6042785;23;20045;-75
2021/06/23 04:07:50;;;;;;;12.90;4.43;;;20.70;62.80;;;;;;6066870;23;20042;-74
2021/06/23 04:10:17;;;;;;;11.57;3.72;;;20.80;63.40;;;;;;6066779;23;20018;-75
2021/06/23 04:12:44;;;;;;;11.32;4.00;;;20.80;63.30;;;;;;6066813;23;20042;-74
2021/06/23 04:15:14;;;;;;;10.55;3.60;;;20.90;63.60;;;;;;6066678;23;20014;-74
2021/06/23 04:17:40;;;;;;;11.57;3.33;;;20.90;63.50;;;;;;6066770;23;20453;-74
2021/06/23 04:20:09;;;;;;;12.55;4.25;;;20.90;62.80;;;;;;6068495;23;20011;-73
2021/06/23 04:22:36;;;;;;;19.05;4.10;;;21.00;63.30;;;;;;6042679;23;20019;-74
2021/06/23 04:25:06;;;;;;;11.85;3.35;;;21.10;63.40;;;;;;6066693;23;20192;-73
2021/06/23 04:27:32;;;;;;;14.43;3.38;;;21.10;63.70;;;;;;6042702;23;20026;-73
2021/06/23 04:29:59;;;;;;;12.30;3.72;;;21.20;63.20;;;;;;6068122;23;20074;-75
2021/06/23 04:32:25;;;;;;;9.73;3.78;;;21.20;64.70;;;;;;6066369;23;20022;-73
2021/06/23 04:34:51;;;;;;;10.95;3.60;;;21.30;63.70;;;;;;6042553;23;20453;-73
2021/06/23 04:37:17;;;;;;;12.82;4.55;;;21.30;63.50;;;;;;6042709;23;20322;-74
2021/06/23 04:39:44;;;;;;;14.85;4.00;;;21.40;63.50;;;;;;6066517;23;20551;-74
2021/06/23 04:42:10;;;;;;;9.25;3.85;;;21.50;63.40;;;;;;6068092;23;20382;-74
2021/06/23 04:44:36;;;;;;;13.10;4.10;;;21.50;63.40;;;;;;6067946;23;20018;-75
2021/06/23 04:47:03;;;;;;;19.08;5.03;;;21.60;62.60;;;;;;6018887;23;20015;-73
2021/06/23 04:49:29;;;;;;;19.15;5.00;;;21.60;62.50;;;;;;6065636;23;20370;-73
2021/06/23 04:51:55;;;;;;;17.92;5.32;;;21.70;62.60;;;;;;6065843;23;20011;-75
2021/06/23 04:54:22;;;;;;;12.80;5.22;;;21.70;63.20;;;;;;6067880;23;20042;-73
2021/06/23 04:56:48;;;;;;;15.80;4.80;;;21.80;63.10;;;;;;6018746;23;20019;-75
2021/06/23 04:59:14;;;;;;;16.80;5.30;;;21.90;63.10;;;;;;6067919;23;20070;-73
2021/06/23 05:01:40;;;;;;;26.63;4.70;;;21.90;62.90;;;;;;6066261;23;20014;-74
2021/06/23 05:04:06;;;;;;;16.33;5.25;;;22.00;62.90;;;;;;6067792;23;20011;-73
2021/06/23 05:06:33;;;;;;;15.77;4.38;;;22.10;62.90;;;;;;6066395;23;20033;-75
2021/06/23 05:08:59;;;;;;;25.05;5.60;;;22.20;62.50;;;;;;6067716;23;20079;-73
2021/06/23 05:11:26;;;;;;;19.77;5.05;;;22.30;62.40;;;;;;6067676;23;20022;-73
2021/06/23 05:13:55;;;;;;;21.55;5.00;;;22.30;62.20;;;;;;6067800;23;20007;-75
2021/06/23 05:16:21;;;;;;;11.52;4.20;;;22.50;62.30;;;;;;6042283;23;20338;-73
2021/06/23 05:18:51;;;;;;;12.10;4.65;;;22.50;61.70;;;;;;6067647;23;20011;-73
2021/06/23 05:21:17;;;;;;;19.25;5.40;;;22.60;61.60;;;;;;6066498;23;20025;-73
2021/06/23 05:23:44;;;;;;;14.55;5.00;;;22.70;62.50;;;;;;6042447;23;20039;-75
2021/06/23 05:26:10;;;;;;;19.90;4.75;;;22.70;62.60;;;;;;6066433;23;20015;-73
2021/06/23 05:28:36;;;;;;;21.20;5.35;;;22.80;63.20;;;;;;6067722;23;20058;-74
2021/06/23 05:31:02;;;;;;;11.48;5.10;;;22.90;63.10;;;;;;6041912;23;20037;-74
2021/06/23 05:33:29;;;;;;;35.03;5.50;;;22.90;62.40;;;;;;6066206;23;20369;-73
2021/06/23 05:35:55;;;;;;;15.60;5.43;;;23.10;62.20;;;;;;6066168;23;20441;-74
2021/06/23 05:38:21;;;;;;;15.25;4.82;;;23.10;61.70;;;;;;6067665;23;20381;-73
2021/06/23 05:40:48;;;;;;;21.63;5.68;;;23.20;61.50;;;;;;6067851;23;20484;-75
2021/06/23 05:43:15;;;;;;;16.05;4.75;;;23.40;61.40;;;;;;6066092;23;20015;-73
2021/06/23 05:45:41;;;;;;;15.07;4.65;;;23.50;61.20;;;;;;6066111;23;20018;-73
2021/06/23 05:48:08;;;;;;;17.67;6.47;;;23.50;60.90;;;;;;6066287;23;20345;-73
2021/06/23 05:50:35;;;;;;;14.60;5.13;;;23.60;60.50;;;;;;6042107;23;20041;-75
2021/06/23 05:53:01;;;;;;;18.08;5.72;;;23.80;60.40;;;;;;6067571;23;20042;-73
2021/06/23 05:55:27;;;;;;;15.02;4.57;;;23.90;60.50;;;;;;6067890;23;20019;-73
2021/06/23 05:57:55;;;;;;;22.08;5.78;;;23.90;60.20;;;;;;6066110;23;20015;-73
2021/06/23 06:00:24;;;;;;;15.98;5.55;;;24.00;59.70;;;;;;6065836;23;20018;-73
2021/06/23 06:02:50;;;;;;;11.30;4.60;;;24.10;59.60;;;;;;6066070;23;20021;-75
2021/06/23 06:05:17;;;;;;;13.57;4.72;;;24.30;59.70;;;;;;6042209;23;20038;-73
2021/06/23 06:07:44;;;;;;;13.90;4.88;;;24.40;59.20;;;;;;6067554;23;20015;-74
2021/06/23 06:10:11;;;;;;;17.05;4.45;;;24.50;59.00;;;;;;6068540;23;20014;-75
2021/06/23 06:12:39;;;;;;;13.82;3.88;;;24.60;58.10;;;;;;6069370;23;20345;-75
2021/06/23 06:15:06;;;;;;;16.85;4.10;;;24.70;57.70;;;;;;6043823;23;20078;-75
2021/06/23 06:17:33;;;;;;;18.98;4.78;;;24.70;57.60;;;;;;6067945;23;20018;-73
2021/06/23 06:19:59;;;;;;;14.80;4.40;;;24.90;57.70;;;;;;6043955;23;20019;-75
2021/06/23 06:22:27;;;;;;;12.55;4.97;;;25.00;57.20;;;;;;6067830;23;20011;-75
2021/06/23 06:24:54;;;;;;;14.88;4.70;;;25.10;57.70;;;;;;6069299;23;20487;-73
2021/06/23 06:27:21;;;;;;;13.95;4.45;;;25.20;56.60;;;;;;6067717;23;20049;-74
2021/06/23 06:29:47;;;;;;;9.38;5.03;;;25.30;56.40;;;;;;6043440;23;20021;-75
2021/06/23 06:32:13;;;;;;;19.67;5.38;;;25.40;55.50;;;;;;6067539;23;20023;-74
2021/06/23 06:34:40;;;;;;;17.00;4.78;;;25.50;55.30;;;;;;6043754;23;20047;-75
2021/06/23 06:37:06;;;;;;;12.73;4.47;;;25.60;55.10;;;;;;6069199;23;20437;-73
2021/06/23 06:39:32;;;;;;;16.98;4.53;;;25.70;55.20;;;;;;6067695;23;20018;-75
2021/06/23 06:41:59;;;;;;;19.25;4.55;;;25.80;55.10;;;;;;6043537;23;20035;-73
2021/06/23 06:44:29;;;;;;;10.48;4.05;;;25.90;54.90;;;;;;6069010;23;20049;-75
2021/06/23 06:46:55;;;;;;;14.23;4.40;;;26.10;54.40;;;;;;6069095;23;20074;-75
2021/06/23 06:49:22;;;;;;;13.25;4.20;;;26.10;54.30;;;;;;6069397;23;20015;-75
2021/06/23 06:51:48;;;;;;;11.25;4.30;;;26.30;54.10;;;;;;6067578;23;20015;-74
2021/06/23 06:54:15;;;;;;;17.55;4.70;;;26.30;54.10;;;;;;6067455;23;20014;-75
2021/06/23 06:56:41;;;;;;;13.30;4.82;;;26.50;54.10;;;;;;6043230;23;20549;-74
2021/06/23 06:59:08;;;;;;;12.20;4.00;;;26.60;54.10;;;;;;6068942;23;20018;-75
2021/06/23 07:01:35;;;;;;;14.15;4.22;;;26.70;53.10;;;;;;6067356;23;20042;-73
2021/06/23 07:04:01;;;;;;;11.63;4.32;;;26.90;52.80;;;;;;6068777;23;20448;-73
2021/06/23 07:06:28;;;;;;;14.43;4.15;;;27.00;53.00;;;;;;6067318;23;20015;-73
2021/06/23 07:08:54;;;;;;;62.63;7.82;;;27.10;51.70;;;;;;6068770;23;20094;-75
2021/06/23 07:11:21;;;;;;;21.42;5.00;;;27.20;51.90;;;;;;6068631;23;20464;-73
2021/06/23 07:13:50;;;;;;;16.65;4.70;;;27.40;51.40;;;;;;6068303;23;20415;-73
2021/06/23 07:16:17;;;;;;;21.33;5.63;;;27.50;50.50;;;;;;6067167;23;20066;-73
2021/06/23 07:18:45;;;;;;;20.52;4.90;;;27.70;51.10;;;;;;6068691;23;20011;-76
2021/06/23 07:21:17;;;;;;;10.65;3.80;;;27.90;50.70;;;;;;6068551;23;20022;-73
2021/06/23 07:24:02;;;;;;;28.33;4.80;;;27.90;50.00;;;;;;6043371;23;20098;-73
2021/06/23 07:26:30;;;;;;;16.05;5.10;;;28.00;50.10;;;;;;6067119;23;20449;-73
2021/06/23 07:29:00;;;;;;;12.85;3.95;;;28.10;49.50;;;;;;6066958;23;20017;-75
2021/06/23 07:34:32;;;;;;;16.67;4.40;;;28.30;48.90;;;;;;6067168;23;20015;-75
2021/06/23 07:36:52;;;;;;;70.43;10.65;;;28.40;49.10;;;;;;6047159;23;20085;-75
2021/06/23 07:39:20;;;;;;;67.88;9.35;;;28.50;48.20;;;;;;6068601;23;20049;-73
2021/06/23 07:41:51;;;;;;;29.98;8.52;;;28.60;48.10;;;;;;6042947;23;20397;-76
2021/06/23 07:44:22;;;;;;;21.55;5.97;;;28.70;47.80;;;;;;6066999;23;20018;-76
2021/06/23 07:46:52;;;;;;;30.10;5.53;;;28.80;47.40;;;;;;6066920;23;20098;-73
2021/06/23 07:49:20;;;;;;;25.10;5.45;;;28.90;47.40;;;;;;6042809;23;20019;-76
2021/06/23 08:10:30;;;;;;;17.88;4.20;;;29.80;45.70;;;;;;6066874;23;20106;-74
2021/06/23 08:12:58;;;;;;;10.45;4.47;;;29.90;45.00;;;;;;6068134;23;20015;-76
2021/06/23 08:15:47;;;;;;;15.07;5.63;;;30.00;45.90;;;;;;6068522;23;20038;-73
2021/06/23 08:18:15;;;;;;;13.57;4.50;;;30.10;45.80;;;;;;6068702;23;20022;-73
2021/06/23 08:20:42;;;;;;;19.52;4.55;;;30.20;44.70;;;;;;6066844;23;20062;-73
2021/06/23 08:23:09;;;;;;;16.48;4.50;;;30.20;44.80;;;;;;6068220;23;20092;-73
2021/06/23 08:25:36;;;;;;;16.15;3.53;;;30.40;44.40;;;;;;6066773;23;20165;-73
2021/06/23 08:28:03;;;;;;;17.10;3.53;;;30.40;43.30;;;;;;6068169;23;20456;-73
2021/06/23 08:30:30;;;;;;;13.55;4.03;;;30.50;43.10;;;;;;6066541;23;20041;-74
2021/06/23 08:32:58;;;;;;;10.93;4.10;;;30.60;42.60;;;;;;6042232;23;20027;-74
2021/06/23 08:35:25;;;;;;;11.00;4.57;;;30.70;42.90;;;;;;6067823;23;20015;-74
2021/06/23 08:37:51;;;;;;;13.50;3.70;;;30.60;40.70;;;;;;6066380;23;20417;-74
2021/06/23 08:40:19;;;;;;;10.48;3.88;;;30.70;41.20;;;;;;6066620;23;20429;-74
2021/06/23 08:42:45;;;;;;;13.77;4.78;;;30.80;40.70;;;;;;6042381;23;20094;-74
2021/06/23 08:45:13;;;;;;;15.38;3.65;;;30.90;41.50;;;;;;6068137;23;20018;-73
2021/06/23 08:47:58;;;;;;;14.38;3.83;;;30.90;41.20;;;;;;6042580;23;20374;-74
2021/06/23 08:50:25;;;;;;;16.10;3.92;;;31.10;40.70;;;;;;6066440;23;20014;-73
2021/06/23 08:52:51;;;;;;;12.23;4.22;;;31.10;39.50;;;;;;6066355;23;20027;-76
2021/06/23 08:58:06;;;;;;;16.02;4.43;;;31.30;40.00;;;;;;6066778;23;20674;-74
2021/06/23 09:00:36;;;;;;;17.88;3.63;;;31.50;39.30;;;;;;6042459;23;20021;-73
2021/06/23 09:05:54;;;;;;;14.68;3.92;;;31.70;40.40;;;;;;6066613;23;20121;-74
2021/06/23 09:08:39;;;;;;;16.77;4.10;;;31.80;39.40;;;;;;6066340;23;20184;-76
2021/06/23 09:11:24;;;;;;;16.65;4.05;;;31.90;40.30;;;;;;6066436;23;20015;-73
2021/06/23 09:13:50;;;;;;;31.95;4.78;;;32.00;40.60;;;;;;6066269;23;20445;-73
2021/06/23 09:16:16;;;;;;;15.77;4.45;;;32.10;40.50;;;;;;6042539;23;20063;-73
2021/06/23 09:18:43;;;;;;;26.45;4.60;;;32.20;40.30;;;;;;6067855;23;20022;-76
2021/06/23 09:21:28;;;;;;;24.63;4.43;;;32.30;39.40;;;;;;6066462;23;20011;-74
2021/06/23 09:23:59;;;;;;;15.55;3.35;;;32.40;39.60;;;;;;6067642;23;20045;-73
2021/06/23 09:26:34;;;;;;;17.02;4.22;;;32.50;39.00;;;;;;6066295;23;20018;-77
2021/06/23 09:29:19;;;;;;;24.08;4.80;;;32.70;38.30;;;;;;6066254;23;20054;-76
2021/06/23 09:32:05;;;;;;;21.85;4.32;;;32.80;38.30;;;;;;6065938;23;20030;-76
2021/06/23 09:34:53;;;;;;;18.27;3.85;;;33.00;38.80;;;;;;6042141;23;20034;-74
2021/06/23 09:37:34;;;;;;;22.15;5.50;;;33.30;38.20;;;;;;6066315;23;20019;-73
2021/06/23 09:40:21;;;;;;;27.75;5.03;;;33.50;37.10;;;;;;6042341;23;20062;-73
2021/06/23 09:43:10;;;;;;;16.05;3.58;;;33.80;36.50;;;;;;6066168;23;20438;-74
2021/06/23 09:45:37;;;;;;;15.65;3.63;;;34.20;34.90;;;;;;6067493;23;20445;-76
2021/06/23 09:48:09;;;;;;;35.72;6.00;;;34.70;34.50;;;;;;6069654;23;20015;-76
2021/06/23 09:50:36;;;;;;;21.27;3.65;;;35.40;33.90;;;;;;6068032;23;20075;-74
2021/06/23 09:53:23;;;;;;;13.35;3.25;;;36.20;33.00;;;;;;6069637;23;20039;-77
2021/06/23 09:55:50;;;;;;;12.23;3.33;;;36.90;31.50;;;;;;6070066;23;20435;-76
2021/06/23 09:58:39;;;;;;;17.10;3.67;;;37.70;30.40;;;;;;6044424;23;20031;-76
2021/06/23 10:01:10;;;;;;;36.97;5.90;;;38.30;29.10;;;;;;6068027;23;20023;-73
2021/06/23 10:04:13;;;;;;;18.27;3.85;;;38.90;28.30;;;;;;6068052;23;20501;-76
2021/06/23 10:06:45;;;;;;;12.70;3.70;;;39.50;28.10;;;;;;6067751;23;20042;-74
2021/06/23 10:09:32;;;;;;;15.40;3.50;;;40.00;26.40;;;;;;6068153;23;20192;-75
2021/06/23 10:12:01;;;;;;;18.45;3.05;;;40.50;26.10;;;;;;6069347;23;20019;-76
2021/06/23 10:14:32;;;;;;;23.23;3.53;;;40.90;24.60;;;;;;6069420;23;20089;-75
2021/06/23 10:17:01;;;;;;;18.02;3.88;;;41.40;24.20;;;;;;6043881;23;20066;-76
2021/06/23 10:19:29;;;;;;;17.73;3.50;;;41.90;22.90;;;;;;6067808;23;20011;-74
2021/06/23 10:21:58;;;;;;;24.52;4.28;;;42.40;22.80;;;;;;6067796;23;20026;-77
2021/06/23 10:24:29;;;;;;;81.80;6.63;;;43.00;22.50;;;;;;6067812;23;20011;-77
2021/06/23 10:26:57;;;;;;;22.85;4.70;;;43.50;22.60;;;;;;6067749;23;20018;-75
2021/06/23 10:29:45;;;;;;;14.25;4.45;;;44.10;22.00;;;;;;6043844;23;20014;-78
2021/06/23 10:32:11;;;;;;;24.83;4.93;;;44.70;22.50;;;;;;6067405;23;20338;-78
2021/06/23 10:34:38;;;;;;;18.80;3.88;;;45.10;21.20;;;;;;6069079;23;20023;-74
2021/06/23 10:37:05;;;;;;;20.02;5.18;;;45.30;20.80;;;;;;6067670;23;20022;-75
2021/06/23 10:39:34;;;;;;;22.63;4.65;;;45.70;20.70;;;;;;6069448;23;20361;-74
2021/06/23 10:42:40;;;;;;;16.63;4.03;;;46.20;20.40;;;;;;6067669;23;20106;-78
2021/06/23 10:45:08;;;;;;;22.17;4.07;;;46.60;20.40;;;;;;6043464;23;20066;-77
2021/06/23 10:48:01;;;;;;;23.90;5.10;;;47.10;19.50;;;;;;6043627;23;20018;-74
2021/06/23 10:50:48;;;;;;;26.58;5.35;;;47.40;19.10;;;;;;6067589;23;20086;-75
2021/06/23 10:53:35;;;;;;;19.42;3.97;;;48.00;18.80;;;;;;6069453;23;20015;-75
2021/06/23 10:56:05;;;;;;;27.20;4.38;;;48.50;18.10;;;;;;6043442;23;20018;-75
2021/06/23 10:58:50;;;;;;;18.45;4.85;;;48.90;16.90;;;;;;6067483;23;20015;-74
2021/06/23 11:01:16;;;;;;;16.17;3.72;;;49.30;17.60;;;;;;6067696;23;20034;-75
2021/06/23 11:04:04;;;;;;;15.90;4.50;;;49.70;16.80;;;;;;6043339;23;20023;-78
2021/06/23 11:06:49;;;;;;;19.13;5.18;;;50.10;15.60;;;;;;6067485;23;20019;-75
2021/06/23 11:09:33;;;;;;;18.95;3.90;;;50.20;15.30;;;;;;6068921;23;20030;-78
2021/06/23 11:12:00;;;;;;;18.52;4.55;;;50.70;15.60;;;;;;6043189;23;20027;-77
2021/06/23 11:14:32;;;;;;;15.40;4.15;;;50.90;14.60;;;;;;6068769;23;20007;-75
2021/06/23 11:17:38;;;;;;;21.60;4.82;;;50.70;14.20;;;;;;6067378;23;20019;-75
2021/06/23 11:20:25;;;;;;;24.30;4.85;;;51.20;15.50;;;;;;6068587;23;20015;-77
2021/06/23 11:23:30;;;;;;;23.98;4.57;;;51.80;15.50;;;;;;6068767;23;20038;-75
2021/06/23 11:25:56;;;;;;;26.98;4.70;;;52.10;15.50;;;;;;6069122;23;20011;-78
2021/06/23 11:28:41;;;;;;;25.33;5.85;;;52.60;15.00;;;;;;6069190;23;20015;-78
2021/06/23 11:31:09;;;;;;;18.75;4.78;;;52.50;14.80;;;;;;6067084;23;20014;-78
2021/06/23 11:33:57;;;;;;;13.90;4.88;;;52.90;14.30;;;;;;6067253;23;20019;-75
2021/06/23 11:36:25;;;;;;;24.08;5.53;;;52.70;14.60;;;;;;6044048;23;20019;-77
2021/06/23 11:38:54;;;;;;;20.27;4.97;;;53.10;14.00;;;;;;6067111;23;20006;-75
2021/06/23 11:41:21;;;;;;;20.33;5.03;;;53.30;13.90;;;;;;6067330;23;20014;-75
2021/06/23 11:43:48;;;;;;;21.30;5.38;;;53.50;13.90;;;;;;6066991;23;20021;-75
2021/06/23 11:46:15;;;;;;;18.95;4.90;;;53.80;13.60;;;;;;6043099;23;20098;-78
2021/06/23 11:48:42;;;;;;;21.25;5.32;;;54.00;13.50;;;;;;6067026;23;20011;-77
2021/06/23 11:51:10;;;;;;;37.05;6.82;;;54.50;13.00;;;;;;6067059;23;20427;-75
2021/06/23 11:53:37;;;;;;;18.85;5.10;;;54.60;13.00;;;;;;6068421;23;20034;-78
2021/06/23 11:56:05;;;;;;;18.58;5.90;;;54.70;13.00;;;;;;6067189;23;20429;-76
2021/06/23 11:58:32;;;;;;;33.13;4.97;;;54.60;13.00;;;;;;6067041;23;20086;-77
2021/06/23 12:00:58;;;;;;;16.77;4.82;;;54.60;13.00;;;;;;6067063;23;20015;-77
2021/06/23 12:03:24;;;;;;;17.02;5.22;;;55.00;13.10;;;;;;6066916;23;20011;-75
2021/06/23 12:05:51;;;;;;;17.52;6.07;;;55.00;13.00;;;;;;6066923;23;20018;-78
2021/06/23 12:08:18;;;;;;;14.23;4.97;;;55.20;12.70;;;;;;6066614;23;20452;-77
2021/06/23 12:10:45;;;;;;;25.80;6.10;;;55.10;12.80;;;;;;6066717;23;20018;-75
2021/06/23 12:13:13;;;;;;;15.38;4.82;;;54.60;12.10;;;;;;6068300;23;20381;-77
2021/06/23 12:15:40;;;;;;;17.48;4.75;;;54.70;12.30;;;;;;6042818;23;20015;-75
2021/06/23 12:18:09;;;;;;;24.02;4.68;;;54.90;12.10;;;;;;6066794;23;20015;-75
2021/06/23 12:20:40;;;;;;;23.73;4.97;;;54.60;12.20;;;;;;6068422;23;20046;-79
2021/06/23 12:23:09;;;;;;;17.85;4.80;;;54.50;12.40;;;;;;6068395;23;20087;-75
2021/06/23 12:25:54;;;;;;;21.98;5.50;;;54.60;12.90;;;;;;6066729;23;20517;-75
2021/06/23 12:28:20;;;;;;;21.05;6.15;;;54.50;12.60;;;;;;6066789;23;20010;-77
2021/06/23 12:30:48;;;;;;;19.27;5.20;;;54.70;13.20;;;;;;6068245;23;20022;-75
2021/06/23 12:33:15;;;;;;;17.38;4.63;;;54.40;13.10;;;;;;6067766;23;20027;-77
2021/06/23 12:36:01;;;;;;;15.95;4.65;;;53.80;12.60;;;;;;6067831;23;20032;-75
2021/06/23 12:38:29;;;;;;;19.85;4.90;;;53.80;12.60;;;;;;6068179;23;20011;-79
2021/06/23 12:40:55;;;;;;;27.05;5.18;;;52.80;13.20;;;;;;6068652;23;20019;-75
2021/06/23 12:43:21;;;;;;;16.92;4.80;;;51.90;13.90;;;;;;6042566;23;20468;-74
2021/06/23 12:45:49;;;;;;;12.68;5.28;;;52.50;13.80;;;;;;6018953;23;20006;-78
2021/06/23 12:48:15;;;;;;;15.98;5.32;;;52.60;13.80;;;;;;6066626;23;20018;-74
2021/06/23 12:50:42;;;;;;;18.85;5.55;;;52.60;13.30;;;;;;6042586;23;20333;-78
2021/06/23 12:53:08;;;;;;;17.50;4.68;;;52.60;13.70;;;;;;6066597;23;20011;-76
2021/06/23 12:55:35;;;;;;;17.48;4.32;;;52.60;13.90;;;;;;6042444;23;20019;-78
2021/06/23 12:58:01;;;;;;;22.38;5.63;;;52.50;14.10;;;;;;6066639;23;20015;-77
2021/06/23 13:00:27;;;;;;;14.18;4.55;;;51.80;14.10;;;;;;6066658;23;20090;-74
2021/06/23 13:02:54;;;;;;;15.57;5.40;;;51.00;15.20;;;;;;6042530;23;20022;-76
2021/06/23 13:05:21;;;;;;;20.15;5.13;;;50.30;14.90;;;;;;6068117;23;20022;-75
2021/06/23 13:07:48;;;;;;;29.05;5.25;;;49.30;15.90;;;;;;6042586;23;20106;-75
2021/06/23 13:10:17;;;;;;;14.40;4.13;;;48.50;16.70;;;;;;6066229;23;20007;-76
2021/06/23 13:12:45;;;;;;;15.77;4.10;;;47.70;17.00;;;;;;6066292;23;20019;-75
2021/06/23 13:15:27;;;;;;;22.10;4.82;;;47.10;17.40;;;;;;6068186;23;20007;-77
2021/06/23 13:17:53;;;;;;;20.27;4.15;;;46.50;17.60;;;;;;6068119;23;20026;-75
2021/06/23 13:20:24;;;;;;;22.48;4.28;;;45.80;17.90;;;;;;6042285;23;20440;-75
2021/06/23 13:22:54;;;;;;;22.77;4.63;;;45.40;19.00;;;;;;6066208;23;20015;-78
2021/06/23 13:25:21;;;;;;;13.70;4.15;;;45.00;19.10;;;;;;6042378;23;20019;-78